createdAt,value
2018-02-26T00:01:14.048Z,71.60
2018-02-26T00:03:42.058Z,72.20
2018-02-26T00:06:10.093Z,72.50
2018-02-26T00:08:39.077Z,72.90
2018-02-26T00:11:08.061Z,72.40
2018-02-26T00:13:37.041Z,73.60
2018-02-26T00:16:05.069Z,74.30
2018-02-26T00:18:38.112Z,74.50
2018-02-26T00:21:08.140Z,74.80
2018-02-26T00:23:36.148Z,75.20
2018-02-26T00:26:09.296Z,75.20
2018-02-26T00:28:39.296Z,75.20
2018-02-26T00:31:26.552Z,74.50
2018-02-26T00:33:55.353Z,75.40
2018-02-26T00:36:25.116Z,75.80
2018-02-26T00:38:53.133Z,75.80
2018-02-26T00:41:26.780Z,75.40
2018-02-26T00:43:56.809Z,75.80
2018-02-26T00:46:30.133Z,76.20
2018-02-26T00:49:04.109Z,75.80
2018-02-26T00:51:37.600Z,75.80
2018-02-26T00:54:07.509Z,76.10
2018-02-26T00:56:36.436Z,76.00
2018-02-26T00:59:18.736Z,76.60
2018-02-26T01:01:52.204Z,76.80
2018-02-26T01:04:21.212Z,76.80
2018-02-26T01:06:50.189Z,77.70
2018-02-26T01:09:21.932Z,77.70
2018-02-26T01:11:51.880Z,78.10
2018-02-26T01:14:28.121Z,78.70
2018-02-26T01:16:56.141Z,78.40
2018-02-26T01:19:29.488Z,79.60
2018-02-26T01:22:11.037Z,79.50
2018-02-26T01:24:39.065Z,79.10
2018-02-26T01:27:08.045Z,78.10
2018-02-26T01:29:36.076Z,78.70
2018-02-26T01:32:05.092Z,79.20
2018-02-26T01:34:34.116Z,79.40
2018-02-26T01:37:03.924Z,79.40
2018-02-26T01:39:36.584Z,79.70
2018-02-26T01:42:19.904Z,79.50
2018-02-26T01:44:54.248Z,79.50
2018-02-26T01:47:23.064Z,80.40
2018-02-26T01:49:58.024Z,80.20
2018-02-26T01:52:29.773Z,80.60
2018-02-26T01:54:57.820Z,80.60
2018-02-26T01:57:30.437Z,80.00
2018-02-26T02:00:01.509Z,80.00
2018-02-26T02:02:30.476Z,80.70
2018-02-26T02:05:02.368Z,80.20
2018-02-26T02:07:31.336Z,80.80
2018-02-26T02:10:00.312Z,80.70
2018-02-26T02:12:32.904Z,80.70
2018-02-26T02:15:01.889Z,80.80
2018-02-26T02:17:33.771Z,81.50
2018-02-26T02:20:02.744Z,81.70
2018-02-26T02:22:33.903Z,82.30
2018-02-26T02:25:12.468Z,82.40
2018-02-26T02:27:43.260Z,82.50
2018-02-26T02:30:12.241Z,82.30
2018-02-26T02:32:40.264Z,82.70
2018-02-26T02:35:15.108Z,83.50
2018-02-26T02:37:45.060Z,84.00
2018-02-26T02:40:17.117Z,83.80
2018-02-26T02:42:50.098Z,84.00
2018-02-26T02:45:29.516Z,84.40
2018-02-26T02:47:57.548Z,83.70
2018-02-26T02:50:27.517Z,84.30
2018-02-26T02:53:14.888Z,85.90
2018-02-26T02:55:47.812Z,85.50
2018-02-26T02:58:17.847Z,85.30
2018-02-26T03:00:47.492Z,85.10
2018-02-26T03:03:16.433Z,85.70
2018-02-26T03:08:39.004Z,85.90
2018-02-26T03:11:07.036Z,86.50
2018-02-26T03:13:54.251Z,86.70
2018-02-26T03:16:34.320Z,87.60
2018-02-26T03:19:14.951Z,87.90
2018-02-26T03:21:42.976Z,87.90
2018-02-26T03:24:14.344Z,88.00
2018-02-26T03:26:43.136Z,88.80
2018-02-26T03:29:35.908Z,87.50
2018-02-26T03:32:05.882Z,87.80
2018-02-26T03:34:39.188Z,88.20
2018-02-26T03:37:12.359Z,88.70
2018-02-26T03:39:50.991Z,88.70
2018-02-26T03:42:22.219Z,89.30
2018-02-26T03:44:51.200Z,89.80
2018-02-26T03:47:26.180Z,90.10
2018-02-26T03:49:54.960Z,90.20
2018-02-26T03:52:25.672Z,90.00
2018-02-26T03:54:57.131Z,90.00
2018-02-26T03:57:25.651Z,90.40
2018-02-26T03:59:54.581Z,90.70
2018-02-26T04:02:27.359Z,90.60
2018-02-26T04:04:55.386Z,90.70
2018-02-26T04:07:25.155Z,90.90
2018-02-26T04:09:57.131Z,90.90
2018-02-26T04:12:36.419Z,91.40
2018-02-26T04:15:05.215Z,91.60
2018-02-26T04:17:53.535Z,91.60
2018-02-26T04:20:26.471Z,92.00
2018-02-26T04:22:54.511Z,92.50
2018-02-26T04:25:22.539Z,92.50
2018-02-26T04:27:51.336Z,92.70
2018-02-26T04:30:19.352Z,92.70
2018-02-26T04:32:51.227Z,92.60
2018-02-26T04:35:22.855Z,92.50
2018-02-26T04:37:50.903Z,92.80
2018-02-26T04:40:19.696Z,92.40
2018-02-26T04:42:49.663Z,92.40
2018-02-26T04:45:24.267Z,92.40
2018-02-26T04:47:54.031Z,92.40
2018-02-26T04:50:25.728Z,92.60
2018-02-26T04:53:02.279Z,92.60
2018-02-26T04:55:30.398Z,92.50
2018-02-26T04:57:59.195Z,92.40
2018-02-26T05:00:29.495Z,92.30
2018-02-26T05:03:03.191Z,92.30
2018-02-26T05:05:32.200Z,92.60
2018-02-26T05:08:01.987Z,92.20
2018-02-26T05:10:37.515Z,92.00
2018-02-26T05:13:07.487Z,91.80
2018-02-26T05:15:39.835Z,91.20
2018-02-26T05:18:07.845Z,91.20
2018-02-26T05:20:42.298Z,90.80
2018-02-26T05:23:10.330Z,90.20
2018-02-26T05:25:42.383Z,89.70
2018-02-26T05:28:15.183Z,89.60
2018-02-26T05:30:45.162Z,89.60
2018-02-26T05:33:21.691Z,89.30
2018-02-26T05:35:53.690Z,89.20
2018-02-26T05:38:29.407Z,89.60
2018-02-26T05:40:57.451Z,88.30
2018-02-26T05:43:26.427Z,88.50
2018-02-26T05:45:55.219Z,88.90
2018-02-26T05:48:24.979Z,88.20
2018-02-26T05:50:54.990Z,88.20
2018-02-26T05:53:25.027Z,87.20
2018-02-26T05:55:56.770Z,87.10
2018-02-26T05:58:24.799Z,87.10
2018-02-26T06:00:59.479Z,87.10
2018-02-26T06:03:38.187Z,87.40
2018-02-26T06:06:07.207Z,87.50
2018-02-26T06:08:39.267Z,87.70
2018-02-26T06:11:09.054Z,86.90
2018-02-26T06:13:38.038Z,86.90
2018-02-26T06:16:06.046Z,87.30
2018-02-26T06:18:36.738Z,86.50
2018-02-26T06:21:04.759Z,86.50
2018-02-26T06:23:36.988Z,86.00
2018-02-26T06:26:07.002Z,85.20
2018-02-26T06:28:40.766Z,84.70
2018-02-26T06:31:08.806Z,85.10
2018-02-26T06:33:37.612Z,87.40
2018-02-26T06:36:06.546Z,87.40
2018-02-26T06:38:34.574Z,88.90
2018-02-26T06:41:03.510Z,89.90
2018-02-26T06:43:32.302Z,90.20
2018-02-26T06:46:01.331Z,90.30
2018-02-26T06:48:31.110Z,90.20
2018-02-26T06:50:59.153Z,90.20
2018-02-26T06:53:27.938Z,89.50
2018-02-26T06:55:56.942Z,89.50
2018-02-26T06:58:24.970Z,88.10
2018-02-26T07:00:52.984Z,87.00
2018-02-26T07:03:21.009Z,87.20
2018-02-26T07:05:55.205Z,87.60
2018-02-26T07:08:24.968Z,84.40
2018-02-26T07:10:52.986Z,84.40
2018-02-26T07:13:22.746Z,83.50
2018-02-26T07:15:50.754Z,83.50
2018-02-26T07:18:24.531Z,78.90
2018-02-26T07:20:52.558Z,78.80
2018-02-26T07:23:20.565Z,74.60
2018-02-26T07:25:52.230Z,71.90
2018-02-26T07:28:33.254Z,71.40
2018-02-26T07:31:01.277Z,67.80
2018-02-26T07:33:29.305Z,64.70
2018-02-26T07:35:58.233Z,63.20
2018-02-26T07:38:30.497Z,63.40
2018-02-26T07:40:58.521Z,62.70
2018-02-26T07:43:30.110Z,63.10
2018-02-26T07:45:58.149Z,60.50
2018-02-26T07:48:27.090Z,59.30
2018-02-26T07:50:59.687Z,61.00
2018-02-26T07:53:28.606Z,63.30
2018-02-26T07:55:57.229Z,64.40
2018-02-26T07:58:30.465Z,66.20
2018-02-26T08:01:02.289Z,67.80
2018-02-26T08:03:33.317Z,66.00
2018-02-26T08:06:16.351Z,67.10
2018-02-26T08:08:45.349Z,68.10
2018-02-26T08:11:13.410Z,62.20
2018-02-26T08:13:41.441Z,63.70
2018-02-26T08:16:11.385Z,58.80
2018-02-26T08:18:45.086Z,57.30
2018-02-26T08:21:13.997Z,52.60
2018-02-26T08:23:42.041Z,46.70
2018-02-26T08:26:14.093Z,44.60
2018-02-26T08:28:44.026Z,41.70
2018-02-26T08:31:13.039Z,41.60
2018-02-26T08:33:41.953Z,37.40
2018-02-26T08:36:15.566Z,35.40
2018-02-26T08:38:43.582Z,35.30
2018-02-26T08:41:11.609Z,35.70
2018-02-26T08:43:39.621Z,37.10
2018-02-26T08:46:07.645Z,37.10
2018-02-26T08:48:37.306Z,41.70
2018-02-26T08:51:05.326Z,41.70
2018-02-26T08:53:33.362Z,41.60
2018-02-26T08:56:05.202Z,39.30
2018-02-26T08:58:37.818Z,35.50
2018-02-26T09:01:06.598Z,32.90
2018-02-26T09:03:52.219Z,29.20
2018-02-26T09:06:21.578Z,29.20
2018-02-26T09:08:53.817Z,30.10
2018-02-26T09:11:21.810Z,30.10
2018-02-26T09:13:52.516Z,30.50
2018-02-26T09:16:20.510Z,30.40
2018-02-26T09:18:52.646Z,30.20
2018-02-26T09:21:25.518Z,30.60
2018-02-26T09:23:53.529Z,33.60
2018-02-26T09:26:23.510Z,39.60
2018-02-26T09:28:53.566Z,42.50
2018-02-26T09:31:24.269Z,45.30
2018-02-26T09:33:52.290Z,44.70
2018-02-26T09:36:20.301Z,41.20
2018-02-26T09:38:48.314Z,39.80
2018-02-26T09:41:17.086Z,29.90
2018-02-26T09:43:45.996Z,29.80
2018-02-26T09:46:14.766Z,29.80
2018-02-26T09:48:43.682Z,29.70
2018-02-26T09:51:12.453Z,26.60
2018-02-26T09:53:45.082Z,26.50
2018-02-26T09:56:13.118Z,26.30
2018-02-26T09:58:47.957Z,24.90
2018-02-26T10:01:21.977Z,25.70
2018-02-26T10:03:49.982Z,26.60
2018-02-26T10:06:21.408Z,26.90
2018-02-26T10:08:52.572Z,25.20
2018-02-26T10:11:20.566Z,26.30
2018-02-26T10:13:54.842Z,29.80
2018-02-26T10:16:23.614Z,30.40
2018-02-26T10:18:52.529Z,30.30
2018-02-26T10:21:20.537Z,31.70
2018-02-26T10:23:49.633Z,33.40
2018-02-26T10:26:21.298Z,33.40
2018-02-26T10:28:52.402Z,34.90
2018-02-26T10:31:22.326Z,35.30
2018-02-26T10:33:51.290Z,35.10
2018-02-26T10:36:19.305Z,34.70
2018-02-26T10:38:48.105Z,34.10
2018-02-26T10:41:19.662Z,34.00
2018-02-26T10:43:47.630Z,32.00
2018-02-26T10:46:15.645Z,28.20
2018-02-26T10:48:44.558Z,26.40
2018-02-26T10:51:17.126Z,26.80
2018-02-26T10:53:46.029Z,28.60
2018-02-26T10:56:16.622Z,29.90
2018-02-26T10:58:44.637Z,29.90
2018-02-26T11:01:24.005Z,32.20
2018-02-26T11:03:52.010Z,31.70
2018-02-26T11:06:20.921Z,32.10
2018-02-26T11:08:50.894Z,29.60
2018-02-26T11:11:32.227Z,27.00
2018-02-26T11:14:01.002Z,28.40
2018-02-26T11:16:29.894Z,28.30
2018-02-26T11:18:58.870Z,27.60
2018-02-26T11:21:27.858Z,27.40
2018-02-26T11:23:55.925Z,28.90
2018-02-26T11:26:24.813Z,28.10
2018-02-26T11:28:52.823Z,26.70
2018-02-26T11:31:26.358Z,26.40
2018-02-26T11:34:00.061Z,26.30
2018-02-26T11:36:31.441Z,25.80
2018-02-26T11:39:01.093Z,23.70
2018-02-26T11:41:29.853Z,24.10
2018-02-26T11:44:01.386Z,24.10
2018-02-26T11:46:30.305Z,22.40
2018-02-26T11:48:58.986Z,20.10
